Time;durP1;ratioP1;P1;durP2;ratioP2;P2;SDS_P1;SDS_P2;PMS_P1;PMS_P2;Temp;Humidity;BMP_temperature;BMP_pressure;BME280_temperature;BME280_humidity;BME280_pressure;Samples;Min_cycle;Max_cycle;Signal;HPM_P1;HPM_P2
2022/04/17 00:00:12;;;;;;;23.92;16.02;;;;;;;2.17;71.49;97576.42;1654366;87;20963;-84
2022/04/17 00:02:40;;;;;;;;;;;;;;;2.14;71.53;97586.06;1658814;85;21036;-83
2022/04/17 00:05:06;;;;;;;31.42;17.32;;;;;;;2.13;71.37;97579.29;1665247;85;20149;-84
2022/04/17 00:07:32;;;;;;;27.25;17.50;;;;;;;2.09;71.42;97578.64;1659883;85;21023;-84
2022/04/17 00:09:58;;;;;;;29.32;18.23;;;;;;;2.06;71.55;97580.95;1660327;85;21125;-83
2022/04/17 00:12:24;;;;;;;28.12;17.15;;;;;;;2.02;71.51;97578.23;1614291;88;22014;-84
2022/04/17 00:14:50;;;;;;;28.52;17.45;;;;;;;1.97;71.64;97578.19;1625251;88;21063;-83
2022/04/17 00:17:17;;;;;;;30.37;18.40;;;;;;;1.94;71.71;97582.20;1664317;85;21113;-84
2022/04/17 00:19:43;;;;;;;29.65;17.82;;;;;;;1.91;71.80;97580.66;1660916;85;21126;-84
2022/04/17 00:22:09;;;;;;;27.50;16.15;;;;;;;1.87;71.94;97579.68;1655490;85;21086;-84
2022/04/17 00:24:35;;;;;;;29.57;18.12;;;;;;;1.86;71.96;97581.42;1661109;85;21384;-83
2022/04/17 00:27:01;;;;;;;26.55;17.70;;;;;;;1.86;72.01;97578.04;1614956;88;21461;-84
2022/04/17 00:29:27;;;;;;;32.08;18.35;;;;;;;1.83;72.08;97581.62;1632461;86;21025;-84
2022/04/17 00:31:56;;;;;;;29.80;17.73;;;;;;;1.82;72.29;97581.73;1661572;85;21456;-84
2022/04/17 00:34:24;;;;;;;30.30;18.02;;;;;;;1.77;72.43;97578.98;1658517;85;22288;-84
2022/04/17 00:36:50;;;;;;;31.85;19.27;;;;;;;1.76;72.26;97580.36;1661437;85;21037;-84
2022/04/17 00:39:16;;;;;;;30.12;19.73;;;;;;;1.74;72.34;97573.23;1659475;85;21050;-84
2022/04/17 00:41:42;;;;;;;30.10;18.48;;;;;;;1.74;72.33;97577.08;1665956;85;20960;-84
2022/04/17 00:44:11;;;;;;;29.77;18.73;;;;;;;1.71;72.52;97579.38;1663759;85;21038;-83
2022/04/17 00:46:39;;;;;;;31.07;18.95;;;;;;;1.70;72.69;97581.58;1657269;85;21046;-84
2022/04/17 00:49:06;;;;;;;26.00;18.10;;;;;;;1.65;72.74;97575.94;1656905;85;21009;-84
2022/04/17 00:51:34;;;;;;;28.47;18.32;;;;;;;1.60;72.70;97574.56;1662240;85;21092;-84
2022/04/17 00:54:00;;;;;;;29.20;17.65;;;;;;;1.56;72.70;97575.22;1660361;85;21108;-83
2022/04/17 00:56:26;;;;;;;29.27;17.87;;;;;;;1.52;72.84;97572.96;1662720;85;21097;-83
2022/04/17 00:58:52;;;;;;;25.95;17.30;;;;;;;1.50;72.63;97576.90;1661898;85;21524;-84
2022/04/17 01:01:18;;;;;;;28.45;18.02;;;;;;;1.45;72.89;97578.45;1656401;85;21038;-84
2022/04/17 01:03:44;;;;;;;25.30;16.73;;;;;;;1.45;72.98;97580.19;1661278;85;21029;-84
2022/04/17 01:06:10;;;;;;;26.65;16.35;;;;;;;1.42;72.91;97573.98;1660628;85;21070;-84
2022/04/17 01:08:41;;;;;;;21.57;15.53;;;;;;;1.41;72.77;97568.50;1659810;85;21608;-83
2022/04/17 01:11:05;;;;;;;25.40;14.98;;;;;;;1.39;73.00;97577.56;1660355;85;21059;-83
2022/04/17 01:13:31;;;;;;;22.77;14.10;;;;;;;1.37;73.19;97573.45;1656150;85;21038;-84
2022/04/17 01:15:58;;;;;;;22.00;13.45;;;;;;;1.32;73.08;97575.03;1662270;85;21392;-84
2022/04/17 01:18:24;;;;;;;20.62;13.50;;;;;;;1.28;73.33;97571.45;1656585;85;21095;-83
2022/04/17 01:20:50;;;;;;;17.37;12.20;;;;;;;1.23;73.44;97564.06;1651873;86;21134;-84
2022/04/17 01:28:47;;;;;;;17.92;11.78;;;;;;;1.14;73.22;97564.19;1648036;86;21031;-84
2022/04/17 01:31:12;;;;;;;23.10;14.53;;;;;;;1.13;73.27;97554.02;1651710;86;21426;-84
2022/04/17 01:33:38;;;;;;;20.85;12.93;;;;;;;1.09;73.24;97552.57;1648863;86;20908;-83
2022/04/17 01:36:04;;;;;;;19.55;13.53;;;;;;;1.04;73.27;97546.92;1646862;86;21361;-83
2022/04/17 01:38:29;;;;;;;20.43;13.08;;;;;;;1.00;73.26;97548.86;1654201;86;21062;-83
2022/04/17 01:40:55;;;;;;;19.65;11.97;;;;;;;0.98;73.33;97546.03;1650009;86;21013;-83
2022/04/17 01:43:21;;;;;;;18.55;12.43;;;;;;;0.96;73.36;97547.37;1648269;86;21342;-83
2022/04/17 01:45:47;;;;;;;20.12;12.37;;;;;;;0.92;73.52;97542.09;1647535;86;21457;-83
2022/04/17 01:48:12;;;;;;;17.77;11.60;;;;;;;0.91;73.55;97537.89;1646402;86;21014;-83
2022/04/17 01:50:38;;;;;;;16.23;11.97;;;;;;;0.86;73.39;97538.17;1650664;86;21074;-83
2022/04/17 01:53:04;;;;;;;19.67;11.53;;;;;;;0.85;73.50;97537.00;1650530;86;21031;-83
2022/04/17 01:55:30;;;;;;;17.02;11.55;;;;;;;0.83;73.54;97543.48;1651450;86;20917;-83
2022/04/17 01:57:57;;;;;;;14.35;10.45;;;;;;;0.83;73.58;97543.48;1647227;86;21038;-83
2022/04/17 02:00:23;;;;;;;13.72;8.85;;;;;;;0.81;73.65;97549.59;1650366;86;21007;-83
2022/04/17 02:02:48;;;;;;;14.60;10.03;;;;;;;0.78;73.86;97540.82;1649393;86;21002;-83
2022/04/17 02:05:15;;;;;;;17.90;10.48;;;;;;;0.76;73.77;97543.94;1648170;86;21046;-83
2022/04/17 02:07:41;;;;;;;13.95;8.95;;;;;;;0.76;73.93;97542.66;1648447;86;20976;-83
2022/04/17 02:10:07;;;;;;;12.65;8.58;;;;;;;0.76;74.04;97544.75;1652836;86;21365;-83
2022/04/17 02:12:33;;;;;;;13.72;8.43;;;;;;;0.76;74.08;97546.03;1651958;86;21019;-84
2022/04/17 02:15:00;;;;;;;12.90;8.05;;;;;;;0.77;74.14;97546.86;1647989;86;21029;-84
2022/04/17 02:17:25;;;;;;;11.63;8.10;;;;;;;0.77;74.06;97548.95;1652453;86;21350;-83
2022/04/17 02:19:51;;;;;;;12.37;8.10;;;;;;;0.74;74.08;97540.65;1654861;85;21089;-83
2022/04/17 02:22:18;;;;;;;12.07;8.70;;;;;;;0.71;74.10;97543.40;1664541;85;20998;-84
2022/04/17 02:24:44;;;;;;;11.70;8.38;;;;;;;0.69;74.13;97536.28;1660444;85;22268;-84
2022/04/17 02:27:10;;;;;;;10.68;8.08;;;;;;;0.70;74.21;97540.02;1661944;85;20991;-83
2022/04/17 02:29:36;;;;;;;11.18;7.95;;;;;;;0.71;74.32;97539.10;1632335;86;21077;-84
2022/04/17 02:32:02;;;;;;;13.15;7.85;;;;;;;0.71;74.31;97535.72;1662693;85;21086;-83
2022/04/17 02:34:27;;;;;;;11.45;7.62;;;;;;;0.69;74.33;97531.16;1662295;85;20994;-83
2022/04/17 02:36:53;;;;;;;11.25;7.80;;;;;;;0.67;74.36;97527.88;1660965;85;21009;-83
2022/04/17 02:39:19;;;;;;;10.93;8.05;;;;;;;0.65;74.49;97534.37;1661912;85;21081;-83
2022/04/17 02:41:45;;;;;;;12.80;8.63;;;;;;;0.64;74.46;97524.20;1665771;85;21460;-83
2022/04/17 02:44:10;;;;;;;14.50;9.25;;;;;;;0.63;74.54;97528.49;1638073;86;21049;-84
2022/04/17 02:49:19;;;;;;;12.75;9.03;;;;;;;0.56;74.45;97522.12;1601714;89;21136;-84
2022/04/17 02:51:45;;;;;;;16.70;9.15;;;;;;;0.55;74.61;97521.75;1642857;85;21077;-84
2022/04/17 02:54:11;;;;;;;13.40;9.13;;;;;;;0.55;74.69;97531.98;1668110;85;21022;-83
2022/04/17 02:56:36;;;;;;;12.37;8.53;;;;;;;0.52;74.69;97520.20;1663995;85;21049;-83
2022/04/17 02:59:02;;;;;;;11.08;8.05;;;;;;;0.51;74.79;97517.74;1667673;85;21137;-83
2022/04/17 03:07:00;;;;;;;12.23;7.70;;;;;;;0.48;74.72;97525.58;1661014;85;21059;-84
2022/04/17 03:09:25;;;;;;;11.30;7.58;;;;;;;0.46;74.76;97520.55;1636576;86;21451;-84
2022/04/17 03:11:51;;;;;;;11.65;8.15;;;;;;;0.45;74.89;97520.19;1656710;85;21413;-83
2022/04/17 03:14:17;;;;;;;10.93;7.28;;;;;;;0.45;74.93;97521.92;1635247;86;21197;-83
2022/04/17 03:16:43;;;;;;;9.23;7.35;;;;;;;0.45;74.91;97521.47;1661485;85;21129;-83
2022/04/17 03:19:08;;;;;;;12.65;8.15;;;;;;;0.46;75.02;97526.13;1668693;85;21149;-83
2022/04/17 03:21:34;;;;;;;9.15;7.00;;;;;;;0.21;75.02;97493.08;1630550;86;21037;-84
2022/04/17 03:24:00;;;;;;;11.57;7.83;;;;;;;0.45;75.08;97529.14;1636438;86;21117;-84
2022/04/17 03:26:25;;;;;;;9.03;6.75;;;;;;;0.46;75.03;97533.34;1639133;86;21048;-84
2022/04/17 03:28:54;;;;;;;10.13;7.60;;;;;;;0.45;75.13;97532.98;1643747;86;21014;-84
2022/04/17 03:31:20;;;;;;;10.65;6.62;;;;;;;0.45;75.20;97532.98;1635095;86;21515;-84
2022/04/17 03:33:45;;;;;;;10.95;6.97;;;;;;;0.44;75.35;97531.79;1637683;86;21013;-84
2022/04/17 03:36:12;;;;;;;8.33;6.55;;;;;;;0.43;75.33;97529.69;1675056;85;20967;-83
2022/04/17 03:38:38;;;;;;;10.58;6.75;;;;;;;0.43;75.53;97533.53;1644630;86;21413;-84
2022/04/17 03:41:04;;;;;;;7.97;6.25;;;;;;;0.42;75.59;97530.61;1658619;85;20968;-83
2022/04/17 03:43:29;;;;;;;8.83;6.28;;;;;;;0.40;75.54;97533.71;1653032;85;20947;-84
2022/04/17 03:45:55;;;;;;;8.38;6.53;;;;;;;0.40;75.69;97534.17;1640490;86;21029;-83
2022/04/17 03:48:23;;;;;;;9.05;6.70;;;;;;;0.41;75.61;97535.81;1629687;86;21554;-84
2022/04/17 03:50:49;;;;;;;8.95;6.33;;;;;;;0.38;75.70;97535.55;1609013;88;21049;-84
2022/04/17 03:53:15;;;;;;;10.82;7.15;;;;;;;0.38;75.75;97534.27;1658803;85;21141;-83
2022/04/17 03:55:41;;;;;;;10.20;6.72;;;;;;;0.37;75.78;97526.23;1661629;85;20975;-84
2022/04/17 03:58:06;;;;;;;9.70;7.15;;;;;;;0.38;75.76;97525.77;1662661;85;21024;-83
2022/04/17 04:00:32;;;;;;;10.25;7.47;;;;;;;0.38;75.82;97526.59;1657883;85;21049;-84
2022/04/17 04:02:59;;;;;;;11.55;7.65;;;;;;;0.39;75.73;97528.23;1666460;85;21037;-83
2022/04/17 04:05:25;;;;;;;10.15;7.80;;;;;;;0.39;75.75;97526.14;1666986;85;20970;-83
2022/04/17 04:07:51;;;;;;;9.53;7.53;;;;;;;0.38;75.75;97527.88;1664318;85;21018;-84
2022/04/17 04:10:17;;;;;;;9.43;7.05;;;;;;;0.40;75.99;97527.78;1666162;85;20959;-84
2022/04/17 04:12:42;;;;;;;8.23;6.50;;;;;;;0.41;75.86;97528.14;1639123;86;21021;-84
2022/04/17 04:15:09;;;;;;;9.43;6.62;;;;;;;0.42;75.77;97528.50;1649686;85;21018;-83
2022/04/17 04:17:34;;;;;;;7.92;6.87;;;;;;;0.42;75.75;97528.05;1658352;85;20971;-84
2022/04/17 04:20:02;;;;;;;8.95;6.70;;;;;;;0.43;75.70;97528.41;1656264;85;21042;-84
2022/04/17 04:22:28;;;;;;;10.40;6.70;;;;;;;0.43;75.89;97528.41;1648686;86;21573;-84
2022/04/17 04:24:53;;;;;;;9.85;5.95;;;;;;;0.43;75.92;97523.30;1648812;86;20943;-84
2022/04/17 04:30:04;;;;;;;8.98;6.15;;;;;;;0.45;75.92;97529.14;1653983;86;21098;-83
2022/04/17 04:32:30;;;;;;;8.05;5.35;;;;;;;0.47;75.96;97527.77;1644713;86;21074;-84
2022/04/17 04:34:59;;;;;;;7.15;5.70;;;;;;;0.48;75.89;97530.69;1612369;88;21008;-84
2022/04/17 04:37:26;;;;;;;8.08;5.95;;;;;;;0.50;75.82;97529.71;1656286;86;21075;-83
2022/04/17 04:39:52;;;;;;;9.20;5.95;;;;;;;0.50;75.82;97528.89;1653889;86;21050;-84
2022/04/17 04:42:22;;;;;;;9.78;5.90;;;;;;;0.52;75.95;97539.84;1652951;86;21478;-84
2022/04/17 04:46:06;;;;;;;9.58;5.87;;;;;;;0.51;75.99;97539.02;1650947;86;20962;-84
2022/04/17 04:47:15;;;;;;;8.95;5.55;;;;;;;0.51;76.05;97544.14;1645995;86;22017;-84
2022/04/17 04:49:41;;;;;;;10.30;5.55;;;;;;;0.51;76.18;97544.14;1654336;86;21011;-83
2022/04/17 04:52:07;;;;;;;7.95;5.75;;;;;;;0.53;76.17;97543.59;1655216;86;21002;-83
2022/04/17 04:54:34;;;;;;;13.38;9.83;;;;;;;0.53;76.07;97546.14;1647430;86;21097;-84
2022/04/17 04:57:00;;;;;;;15.08;10.58;;;;;;;0.56;76.09;97542.58;1657499;86;20999;-84
2022/04/17 04:59:26;;;;;;;16.07;11.28;;;;;;;0.60;76.04;97547.41;1652803;86;21034;-84
2022/04/17 05:01:52;;;;;;;16.42;12.73;;;;;;;0.66;76.05;97548.80;1650716;86;21583;-83
2022/04/17 05:04:20;;;;;;;18.52;12.25;;;;;;;0.71;75.94;97538.28;1649462;86;21049;-84
2022/04/17 05:06:45;;;;;;;17.20;13.85;;;;;;;0.74;75.75;97543.20;1647325;87;21055;-84
2022/04/17 05:09:11;;;;;;;28.73;17.05;;;;;;;0.76;75.77;97546.49;1647226;87;21360;-84
2022/04/17 05:11:37;;;;;;;30.60;20.17;;;;;;;0.78;75.78;97540.36;1647481;86;20993;-84
2022/04/17 05:14:06;;;;;;;27.62;19.27;;;;;;;0.82;75.73;97545.69;1644230;87;21037;-84
2022/04/17 05:16:33;;;;;;;26.07;18.95;;;;;;;0.83;75.78;97545.22;1642245;87;21059;-83
2022/04/17 05:21:46;;;;;;;27.90;19.70;;;;;;;0.86;76.16;97543.75;1627165;87;21014;-84
2022/04/17 05:24:10;;;;;;;28.35;19.50;;;;;;;0.90;76.39;97543.92;1632866;87;21038;-84
2022/04/17 05:26:37;;;;;;;28.17;18.73;;;;;;;0.96;76.56;97540.98;1628872;87;21381;-84
2022/04/17 05:29:02;;;;;;;28.12;20.12;;;;;;;1.06;76.61;97550.20;1633567;86;21018;-83
2022/04/17 05:31:30;;;;;;;28.40;19.77;;;;;;;1.17;76.96;97552.94;1628099;87;20962;-83
2022/04/17 05:33:55;;;;;;;27.00;20.88;;;;;;;1.06;77.07;97517.75;1639977;86;21106;-84
2022/04/17 05:36:21;;;;;;;26.75;19.87;;;;;;;1.39;76.98;97552.41;1624127;87;21086;-84
2022/04/17 05:38:48;;;;;;;31.80;22.07;;;;;;;1.44;76.93;97552.94;1631322;86;21106;-83
2022/04/17 05:41:14;;;;;;;27.32;19.52;;;;;;;1.50;76.81;97556.41;1633289;86;21041;-81
2022/04/17 05:43:40;;;;;;;28.95;20.75;;;;;;;1.61;76.32;97553.14;1634676;86;21031;-82
2022/04/17 05:46:06;;;;;;;27.05;19.52;;;;;;;1.72;76.44;97546.43;1625033;87;21003;-82
2022/04/17 05:48:32;;;;;;;28.50;19.20;;;;;;;1.86;76.28;97554.98;1628980;87;20938;-82
2022/04/17 05:50:58;;;;;;;28.50;20.15;;;;;;;1.98;76.39;97549.88;1638456;86;20978;-81
2022/04/17 05:53:24;;;;;;;25.37;19.15;;;;;;;2.08;76.32;97547.52;1628123;87;21053;-82
2022/04/17 05:55:50;;;;;;;29.48;18.30;;;;;;;2.17;75.40;97548.67;1618958;87;20944;-82
2022/04/17 05:58:16;;;;;;;28.25;18.48;;;;;;;2.25;75.67;97542.09;1629620;87;21053;-81
2022/04/17 06:00:43;;;;;;;19.10;15.05;;;;;;;2.33;76.02;97548.84;1638092;86;22069;-81
2022/04/17 06:03:08;;;;;;;26.00;17.60;;;;;;;2.38;74.12;97547.24;1639611;87;21070;-82
2022/04/17 06:05:34;;;;;;;22.45;17.62;;;;;;;2.43;74.11;97547.75;1632947;87;21102;-82
2022/04/17 06:08:00;;;;;;;20.68;16.30;;;;;;;2.52;74.71;97547.14;1632199;86;20994;-82
2022/04/17 06:10:25;;;;;;;21.80;15.58;;;;;;;2.60;73.34;97546.61;1599683;88;21401;-82
2022/04/17 06:12:51;;;;;;;19.67;13.95;;;;;;;2.69;73.25;97548.56;1628651;87;20997;-82
2022/04/17 06:15:17;;;;;;;27.82;19.67;;;;;;;2.78;73.03;97555.66;1631832;86;21017;-82
2022/04/17 06:17:43;;;;;;;21.40;16.73;;;;;;;2.87;73.95;97555.47;1632835;87;21160;-82
2022/04/17 06:20:14;;;;;;;23.00;16.93;;;;;;;3.01;74.05;97552.78;1636534;86;20959;-82
2022/04/17 06:22:40;;;;;;;20.23;13.65;;;;;;;3.13;73.25;97556.25;1646334;85;21022;-82
2022/04/17 06:25:08;;;;;;;17.98;12.28;;;;;;;3.20;71.96;97558.73;1644868;87;21022;-82
2022/04/17 06:27:47;;;;;;;18.45;13.83;;;;;;;3.27;72.09;97554.36;1652341;87;21037;-81
2022/04/17 06:30:19;;;;;;;17.48;12.18;;;;;;;3.32;71.92;97555.31;1646789;85;21041;-81
2022/04/17 06:32:45;;;;;;;16.17;10.78;;;;;;;3.39;71.14;97552.66;1640602;87;21026;-81
2022/04/17 06:35:13;;;;;;;22.50;15.85;;;;;;;3.48;70.62;97558.44;1646699;87;21060;-82
2022/04/17 06:37:51;;;;;;;16.00;12.37;;;;;;;3.61;71.72;97549.40;1648593;87;21107;-82
2022/04/17 06:40:24;;;;;;;15.93;11.25;;;;;;;3.70;70.97;97548.72;1641498;87;21025;-82
2022/04/17 06:42:51;;;;;;;17.12;13.45;;;;;;;3.77;70.46;97556.37;1625981;88;20986;-82
2022/04/17 06:45:17;;;;;;;15.90;10.72;;;;;;;3.77;69.47;97553.80;1647529;87;21031;-82
2022/04/17 06:47:44;;;;;;;18.87;13.50;;;;;;;3.75;69.65;97556.95;1651689;85;21081;-82
2022/04/17 06:50:10;;;;;;;17.85;11.70;;;;;;;3.72;68.37;97547.33;1648632;87;21010;-82
2022/04/17 06:52:36;;;;;;;17.60;11.97;;;;;;;3.70;69.00;97552.58;1637286;85;20955;-82
2022/04/17 06:55:03;;;;;;;17.65;14.13;;;;;;;3.83;70.01;97543.52;1636208;87;21041;-82
2022/04/17 06:57:30;;;;;;;16.07;11.75;;;;;;;4.00;69.96;97548.72;1640778;87;21343;-82
2022/04/17 06:59:56;;;;;;;19.27;14.23;;;;;;;4.21;69.07;97549.70;1636530;87;22236;-82
2022/04/17 07:02:22;;;;;;;13.78;9.55;;;;;;;4.32;69.45;97549.73;1634009;85;21041;-82
2022/04/17 07:04:48;;;;;;;15.72;10.95;;;;;;;4.38;67.95;97538.16;1634312;87;20986;-82
2022/04/17 07:07:13;;;;;;;12.73;8.90;;;;;;;4.38;67.03;97544.59;1649158;87;21042;-82
2022/04/17 07:09:39;;;;;;;10.40;8.33;;;;;;;4.46;67.12;97547.42;1641593;87;21538;-82
2022/04/17 07:12:05;;;;;;;11.60;8.78;;;;;;;4.64;66.62;97540.06;1652524;85;21074;-82
2022/04/17 07:14:32;;;;;;;12.60;8.60;;;;;;;4.70;67.86;97541.70;1642100;85;20990;-82
2022/04/17 07:16:58;;;;;;;14.93;9.23;;;;;;;4.80;67.50;97549.55;1644853;85;21426;-82
2022/04/17 07:19:23;;;;;;;13.18;9.45;;;;;;;4.89;66.79;97544.18;1649520;85;21078;-81
2022/04/17 07:21:49;;;;;;;10.88;8.28;;;;;;;4.92;66.00;97535.74;1643088;87;21354;-81
2022/04/17 07:24:15;;;;;;;9.53;7.00;;;;;;;5.11;65.42;97545.44;1640763;87;20979;-82
2022/04/17 07:26:41;;;;;;;7.20;6.22;;;;;;;5.09;63.58;97549.89;1600459;88;21064;-81
2022/04/17 07:29:07;;;;;;;10.63;7.40;;;;;;;4.94;62.76;97535.16;1602264;88;20988;-81
2022/04/17 07:31:33;;;;;;;11.08;8.48;;;;;;;5.05;63.01;97547.21;1596764;88;21103;-82
2022/04/17 07:33:58;;;;;;;10.55;8.65;;;;;;;5.22;64.28;97547.19;1634593;85;21465;-81
2022/04/17 07:36:24;;;;;;;10.80;9.23;;;;;;;5.37;64.59;97545.98;1658489;85;21077;-81
2022/04/17 07:38:50;;;;;;;13.25;8.75;;;;;;;5.57;65.17;97546.98;1635251;87;20964;-82
2022/04/17 07:41:16;;;;;;;15.13;10.23;;;;;;;5.75;63.71;97550.67;1646748;86;21368;-87
2022/04/17 07:43:41;;;;;;;13.28;9.70;;;;;;;5.88;63.63;97542.30;1649612;85;21069;-82
2022/04/17 07:46:07;;;;;;;16.20;11.63;;;;;;;5.90;61.04;97539.63;1636153;87;21017;-82
2022/04/17 07:48:34;;;;;;;11.70;8.95;;;;;;;5.89;63.99;97543.94;1645826;85;21138;-82
2022/04/17 07:51:00;;;;;;;9.80;7.58;;;;;;;6.02;62.89;97539.92;1640670;87;21449;-82
2022/04/17 07:53:26;;;;;;;10.63;7.92;;;;;;;6.15;61.48;97543.11;1646678;87;21106;-82
2022/04/17 07:55:52;;;;;;;9.15;6.90;;;;;;;6.16;60.17;97536.19;1648179;87;21085;-81
2022/04/17 07:58:34;;;;;;;9.60;7.20;;;;;;;6.20;58.88;97537.13;1648699;86;21399;-82
2022/04/17 08:00:58;;;;;;;11.95;8.18;;;;;;;6.22;57.22;97539.10;1643427;86;20983;-83
2022/04/17 08:03:34;;;;;;;9.88;6.17;;;;;;;6.13;58.27;97537.73;1646383;86;21096;-80
2022/04/17 08:05:52;;;;;;;13.18;6.95;;;;;;;6.23;56.46;97528.30;1637599;85;21025;-83
2022/04/17 08:08:17;;;;;;;8.60;5.80;;;;;;;6.29;57.74;97533.77;1640426;85;21479;-81
2022/04/17 08:10:43;;;;;;;9.93;6.35;;;;;;;6.32;56.71;97534.80;1644868;87;21101;-81
2022/04/17 08:13:09;;;;;;;10.88;7.15;;;;;;;6.23;54.84;97532.18;1623562;87;21005;-81
2022/04/17 08:15:35;;;;;;;10.48;6.30;;;;;;;6.19;58.43;97529.52;1644011;85;20994;-82
2022/04/17 08:18:01;;;;;;;9.48;6.53;;;;;;;6.22;58.40;97534.41;1649915;87;21042;-81
2022/04/17 08:20:27;;;;;;;12.00;7.75;;;;;;;6.26;58.11;97528.05;1645898;85;21111;-82
2022/04/17 08:22:54;;;;;;;12.30;7.10;;;;;;;6.22;57.65;97535.70;1639016;87;21078;-82
2022/04/17 08:25:19;;;;;;;11.50;7.65;;;;;;;6.10;54.44;97538.00;1643566;86;21098;-82
2022/04/17 08:27:50;;;;;;;9.43;7.25;;;;;;;5.99;57.16;97533.23;1641771;87;20943;-82
2022/04/17 08:30:27;;;;;;;8.15;6.15;;;;;;;5.95;56.88;97533.14;1633602;87;21448;-82
2022/04/17 08:32:53;;;;;;;9.73;6.47;;;;;;;5.86;57.05;97537.73;1630408;87;21018;-82
2022/04/17 08:35:22;;;;;;;7.78;6.15;;;;;;;5.78;55.95;97544.44;1632795;86;21469;-82
2022/04/17 08:37:48;;;;;;;6.50;4.60;;;;;;;5.75;56.83;97532.62;1604815;88;21043;-82
2022/04/17 08:40:15;;;;;;;8.50;5.60;;;;;;;5.80;57.20;97534.34;1646128;87;21429;-82
2022/04/17 08:42:41;;;;;;;9.65;7.08;;;;;;;5.83;57.59;97530.22;1641256;87;21077;-82
2022/04/17 08:45:09;;;;;;;10.98;8.08;;;;;;;5.80;57.05;97527.08;1641043;86;21425;-83
2022/04/17 08:47:39;;;;;;;7.50;5.90;;;;;;;5.83;57.44;97525.53;1642320;86;21859;-82
2022/04/17 08:50:11;;;;;;;8.25;5.70;;;;;;;6.05;56.42;97526.77;1646001;87;21692;-84
2022/04/17 08:52:38;;;;;;;7.53;5.03;;;;;;;6.17;55.01;97519.29;1639811;86;21358;-83
2022/04/17 08:55:05;;;;;;;7.50;4.85;;;;;;;6.26;56.04;97519.02;1640284;87;21050;-82
2022/04/17 08:57:30;;;;;;;9.05;6.30;;;;;;;6.36;56.04;97520.38;1632948;86;21017;-82
2022/04/17 08:59:56;;;;;;;10.03;5.72;;;;;;;6.39;56.21;97517.06;1639293;87;21013;-82
2022/04/17 09:02:22;;;;;;;5.72;4.10;;;;;;;6.42;56.21;97517.27;1631917;87;21321;-83
2022/04/17 09:04:48;;;;;;;6.83;4.33;;;;;;;6.44;54.84;97513.61;1639872;87;21110;-83
2022/04/17 09:07:14;;;;;;;4.90;3.30;;;;;;;6.44;53.17;97516.67;1643212;86;21133;-83
2022/04/17 09:09:53;;;;;;;5.03;3.17;;;;;;;6.37;50.52;97508.63;1644519;86;20971;-82
2022/04/17 09:12:22;;;;;;;5.15;3.67;;;;;;;6.31;51.87;97507.36;1641854;86;21030;-82
2022/04/17 09:14:50;;;;;;;4.42;3.40;;;;;;;6.23;52.58;97508.48;1646598;86;21026;-82
2022/04/17 09:17:18;;;;;;;4.58;3.45;;;;;;;6.23;51.66;97503.79;1643890;87;21323;-82
2022/04/17 09:19:44;;;;;;;4.35;2.80;;;;;;;6.25;53.33;97492.39;1642513;87;21098;-82
2022/04/17 09:22:10;;;;;;;5.67;4.15;;;;;;;6.28;49.81;97502.45;1641015;86;21094;-82
2022/04/17 09:24:39;;;;;;;5.75;4.47;;;;;;;6.25;51.18;97496.26;1637777;86;21030;-82
2022/04/17 09:27:06;;;;;;;5.10;3.70;;;;;;;6.29;53.28;97490.36;1642253;87;21332;-82
2022/04/17 09:29:35;;;;;;;4.87;3.67;;;;;;;6.41;53.17;97486.77;1645488;87;21023;-83
2022/04/17 09:32:12;;;;;;;5.55;3.83;;;;;;;6.52;52.11;97482.00;1648211;87;21412;-83
2022/04/17 09:34:58;;;;;;;3.45;2.30;;;;;;;6.58;52.59;97484.88;1644086;87;20998;-82
2022/04/17 09:37:26;;;;;;;3.22;2.45;;;;;;;6.76;50.51;97479.09;1642238;87;21069;-83
2022/04/17 09:39:52;;;;;;;3.45;2.15;;;;;;;6.75;48.30;97474.88;1652865;85;21085;-82
2022/04/17 09:42:25;;;;;;;5.67;2.80;;;;;;;6.95;50.86;97465.41;1600381;88;21406;-82
2022/04/17 09:44:54;;;;;;;3.80;2.22;;;;;;;7.08;49.07;97465.50;1633533;87;21077;-82
2022/04/17 09:47:28;;;;;;;3.02;1.95;;;;;;;7.07;49.59;97456.59;1640374;87;21061;-82
2022/04/17 09:50:09;;;;;;;3.90;2.40;;;;;;;6.95;47.02;97462.34;1641626;86;21021;-82
2022/04/17 09:52:40;;;;;;;3.05;2.40;;;;;;;6.84;49.82;97461.18;1641449;86;21331;-82
2022/04/17 09:55:07;;;;;;;2.75;2.30;;;;;;;6.88;48.41;97464.66;1642368;86;21070;-82
2022/04/17 09:57:41;;;;;;;2.65;1.92;;;;;;;6.96;49.27;97460.09;1641931;87;21065;-81
2022/04/17 10:00:12;;;;;;;3.33;2.10;;;;;;;7.03;48.13;97459.93;1638079;87;21006;-83
2022/04/17 10:02:39;;;;;;;2.92;2.12;;;;;;;7.10;48.21;97457.14;1638270;87;21045;-82
2022/04/17 10:05:07;;;;;;;3.52;1.90;;;;;;;7.24;48.82;97453.36;1630679;87;20998;-82
2022/04/17 10:07:33;;;;;;;3.10;2.12;;;;;;;7.49;48.49;97446.84;1636698;87;21010;-83
2022/04/17 10:09:58;;;;;;;2.52;2.10;;;;;;;7.85;48.14;97444.02;1645221;86;21341;-82
2022/04/17 10:12:25;;;;;;;2.12;1.92;;;;;;;8.12;47.02;97444.56;1636585;87;21022;-83
2022/04/17 10:14:52;;;;;;;3.35;2.55;;;;;;;8.14;47.97;97442.67;1638505;87;21110;-82
2022/04/17 10:17:22;;;;;;;3.02;1.92;;;;;;;8.13;46.65;97444.45;1637280;86;21392;-82
2022/04/17 10:19:49;;;;;;;2.92;2.08;;;;;;;7.98;43.79;97445.84;1646343;87;20977;-82
2022/04/17 10:22:21;;;;;;;2.72;2.10;;;;;;;7.79;43.78;97444.56;1641710;86;20987;-83
2022/04/17 10:24:52;;;;;;;3.00;2.20;;;;;;;7.61;45.89;97439.27;1631129;87;21138;-83
2022/04/17 10:27:28;;;;;;;3.00;2.40;;;;;;;7.52;46.04;97438.34;1638329;86;21030;-83
2022/04/17 10:29:59;;;;;;;3.00;2.30;;;;;;;7.39;44.04;97438.27;1637191;87;21413;-83
2022/04/17 10:33:12;;;;;;;2.72;1.85;;;;;;;7.34;46.33;97439.16;1636457;87;21027;-83
2022/04/17 10:36:35;;;;;;;2.80;2.12;;;;;;;7.52;47.63;97430.58;1632072;87;21058;-83
2022/04/17 10:39:22;;;;;;;2.87;2.05;;;;;;;7.68;46.29;97426.14;1586390;89;21023;-81
2022/04/17 10:41:48;;;;;;;2.72;1.60;;;;;;;7.83;45.79;97424.76;1572250;90;21055;-80
2022/04/17 10:44:15;;;;;;;3.22;1.87;;;;;;;7.78;45.62;97420.45;1583464;89;21003;-83
2022/04/17 10:46:47;;;;;;;2.77;1.80;;;;;;;7.97;46.28;97417.48;1595800;89;21038;-83
2022/04/17 10:49:15;;;;;;;;;;;;;;;7.97;42.97;97406.69;1589639;89;21124;-82
2022/04/17 10:51:49;;;;;;;2.42;1.98;;;;;;;7.77;45.67;97418.83;1611681;89;20099;-81
2022/04/17 10:54:15;;;;;;;1.80;1.60;;;;;;;7.71;46.17;97415.51;1603687;89;21425;-84
2022/04/17 10:56:42;;;;;;;2.42;1.70;;;;;;;7.81;46.73;97411.15;1580652;89;21047;-83
2022/04/17 10:59:18;;;;;;;3.87;2.10;;;;;;;8.13;46.02;97407.36;1582623;89;21089;-83
2022/04/17 11:01:52;;;;;;;2.35;1.70;;;;;;;8.50;47.39;97405.30;1608235;89;20991;-83
2022/04/17 11:04:27;;;;;;;2.62;1.60;;;;;;;8.80;43.89;97408.08;1595984;89;21127;-83
2022/04/17 11:07:11;;;;;;;2.77;1.90;;;;;;;9.03;43.64;97398.43;1595066;89;21086;-84
2022/04/17 11:09:40;;;;;;;2.47;1.35;;;;;;;9.14;42.83;97394.00;1603190;89;21087;-84
2022/04/17 11:12:07;;;;;;;2.33;2.00;;;;;;;8.96;41.21;97392.22;1599075;89;21083;-83
2022/04/17 11:14:33;;;;;;;2.65;1.67;;;;;;;8.73;42.24;97397.46;1603178;89;20997;-83
2022/04/17 11:17:01;;;;;;;1.80;1.57;;;;;;;8.55;42.49;97394.83;1602541;89;21070;-83
2022/04/17 11:19:33;;;;;;;1.90;1.52;;;;;;;8.46;43.93;97392.27;1600198;89;21693;-82
2022/04/17 11:22:01;;;;;;;2.40;1.47;;;;;;;8.42;42.07;97388.69;1600952;88;21047;-82
2022/04/17 11:24:30;;;;;;;2.85;1.82;;;;;;;8.32;43.96;97389.67;1596679;88;21142;-83
2022/04/17 11:27:01;;;;;;;2.52;2.20;;;;;;;8.06;44.42;97388.19;1610639;88;21079;-81
2022/04/17 11:29:50;;;;;;;2.75;1.98;;;;;;;7.96;44.99;97387.39;1610183;88;21349;-81
2022/04/17 11:32:30;;;;;;;3.30;2.00;;;;;;;7.93;45.35;97383.80;1617404;88;21014;-80
2022/04/17 11:34:57;;;;;;;2.20;1.70;;;;;;;7.96;45.03;97375.27;1620237;88;21046;-81
2022/04/17 11:37:26;;;;;;;2.72;1.62;;;;;;;8.12;45.56;97375.97;1619043;88;21082;-81
2022/04/17 11:39:59;;;;;;;2.42;1.60;;;;;;;8.22;44.69;97372.05;1603118;88;21493;-81
2022/04/17 11:42:28;;;;;;;2.52;1.72;;;;;;;8.21;43.95;97369.95;1621471;88;21031;-81
2022/04/17 11:44:53;;;;;;;2.30;2.00;;;;;;;8.18;41.47;97361.17;1621696;88;21042;-81
2022/04/17 11:47:20;;;;;;;2.92;2.00;;;;;;;8.13;44.19;97364.65;1619598;88;20997;-82
2022/04/17 11:49:48;;;;;;;3.70;2.05;;;;;;;8.12;44.30;97357.36;1627923;88;21020;-82
2022/04/17 11:52:21;;;;;;;2.75;2.00;;;;;;;8.07;43.83;97358.28;1637884;87;21007;-81
2022/04/17 11:54:48;;;;;;;2.98;2.37;;;;;;;8.38;42.45;97348.50;1641463;87;21081;-81